Ear Falls, Canada
Current Conditions -  °F | °C
As of 4:00 AM on Friday 19 Dec 2014 (Local Time) from CYRL Reporting Station
Light Snow Light Snow  
Wind Chill:   Ceiling: 700
Heat Index: 14°   Visibility: 12mi
Dew Point: 12°   Wind: 6mph
Humidity: 93%   Direction: 190°S
Pressure: 30.15"   Gusts: NA
Location:  50.64°N, 93.23°W
Report Text: CYRL 191000Z 19005KT 12SM -SN OVC007 M10/M11 A3015 RMK ST8 FROIN SLP242
Loading
Personal Weather Stations






























Interactive Weather Map New forecast layout! Learn more

10-Day Weather Forecast

Advertisements
Track Severe Weather on mobile